createdAt,value
2018-12-04T00:10:09.355Z,96576.34
2018-12-04T00:15:04.092Z,96569.20
2018-12-04T00:19:58.678Z,96582.32
2018-12-04T00:24:53.147Z,96573.14
2018-12-04T00:29:47.663Z,96591.01
2018-12-04T00:50:57.252Z,96610.97
2018-12-04T00:55:51.741Z,96614.27
2018-12-04T01:00:46.248Z,96621.89
2018-12-04T01:05:40.731Z,96632.45
2018-12-04T01:10:35.168Z,96623.37
2018-12-04T01:26:19.402Z,96647.23
2018-12-04T01:31:13.983Z,96652.12
2018-12-04T01:36:08.540Z,96661.64
2018-12-04T01:41:03.063Z,96655.05
2018-12-04T02:02:12.348Z,96655.52
2018-12-04T02:07:06.950Z,96664.70
2018-12-04T02:12:01.535Z,96663.97
2018-12-04T02:16:56.044Z,96672.25
2018-12-04T02:21:50.559Z,96674.15
2018-12-04T02:26:45.135Z,96676.84
2018-12-04T02:31:39.715Z,96674.39
2018-12-04T02:36:34.334Z,96680.95
2018-12-04T02:41:28.868Z,96690.31
2018-12-04T03:02:38.174Z,96675.52
2018-12-04T03:07:32.709Z,96679.73
2018-12-04T03:12:27.312Z,96687.44
2018-12-04T03:17:21.883Z,96687.63
2018-12-04T03:22:16.479Z,96685.83
2018-12-04T03:43:25.499Z,96701.97
2018-12-04T03:48:19.988Z,96720.54
2018-12-04T03:53:14.475Z,96735.73
2018-12-04T03:58:08.978Z,96730.07
2018-12-04T04:03:03.582Z,96732.10
2018-12-04T04:18:48.008Z,96750.24
2018-12-04T04:23:42.481Z,96746.67
2018-12-04T04:28:37.036Z,96747.20
2018-12-04T04:33:31.511Z,96745.14
2018-12-04T04:54:40.378Z,96749.43
2018-12-04T04:59:34.923Z,96750.87
2018-12-04T05:04:29.444Z,96751.75
2018-12-04T05:09:24.011Z,96765.38
2018-12-04T05:14:18.507Z,96785.52
2018-12-04T05:19:13.023Z,96811.13
2018-12-04T05:24:07.527Z,96811.56
2018-12-04T05:29:02.063Z,96822.81
2018-12-04T05:50:13.723Z,96853.20
2018-12-04T05:55:08.259Z,96867.19
2018-12-04T06:00:02.791Z,96877.81
2018-12-04T06:04:57.488Z,96885.89
2018-12-04T06:09:52.029Z,96887.67
2018-12-04T06:14:46.895Z,96886.91
2018-12-04T06:19:41.438Z,96893.11
2018-12-04T06:24:36.033Z,96903.03
2018-12-04T06:29:30.650Z,96900.59
2018-12-04T06:50:46.806Z,96940.22
2018-12-04T06:55:41.356Z,96943.45
2018-12-04T07:00:35.918Z,96950.38
2018-12-04T07:05:32.047Z,96960.45
2018-12-04T07:10:27.704Z,96955.98
2018-12-04T07:31:38.058Z,97001.17
2018-12-04T07:36:32.864Z,97009.12
2018-12-04T07:41:27.592Z,97017.88
2018-12-04T07:46:22.183Z,97026.60
2018-12-04T07:51:16.889Z,97042.55
2018-12-04T08:07:01.188Z,97079.41
2018-12-04T08:11:56.164Z,97088.95
2018-12-04T08:16:50.818Z,97088.33
2018-12-04T08:21:48.721Z,97100.42
2018-12-04T08:42:57.936Z,97126.09
2018-12-04T08:47:52.596Z,97139.52
2018-12-04T08:52:47.334Z,97158.61
2018-12-04T08:57:41.981Z,97161.72
2018-12-04T09:02:36.775Z,97171.66
2018-12-04T09:23:45.958Z,97189.89
2018-12-04T09:28:41.967Z,97198.44
2018-12-04T09:33:36.614Z,97207.27
2018-12-04T09:38:31.345Z,97205.09
2018-12-04T09:43:26.370Z,97206.95
2018-12-04T09:59:24.520Z,97222.36
2018-12-04T10:04:19.320Z,97222.36
2018-12-04T10:09:14.632Z,97223.53
2018-12-04T10:14:09.490Z,97226.67
2018-12-04T10:19:04.578Z,97227.42
2018-12-04T10:40:13.896Z,97233.77
2018-12-04T10:45:09.016Z,97242.80
2018-12-04T10:50:05.202Z,97235.21
2018-12-04T10:55:04.438Z,97244.93
2018-12-04T10:59:57.796Z,97250.81
2018-12-04T11:21:07.531Z,97269.37
2018-12-04T11:26:02.341Z,97269.52
2018-12-04T11:30:57.459Z,97277.77
2018-12-04T11:35:52.919Z,97281.44
2018-12-04T11:40:52.201Z,97279.45
2018-12-04T11:56:36.128Z,97276.38
2018-12-04T12:01:32.153Z,97275.05
2018-12-04T12:06:26.956Z,97263.35
2018-12-04T12:11:25.507Z,97265.05
2018-12-04T12:32:35.666Z,97282.27
2018-12-04T12:37:37.434Z,97290.36
2018-12-04T12:42:39.220Z,97289.81
2018-12-04T12:47:34.111Z,97292.02
2018-12-04T12:52:29.969Z,97296.59
2018-12-04T12:57:24.919Z,97291.78
2018-12-04T13:02:19.659Z,97295.54
2018-12-04T13:07:15.136Z,97286.64
2018-12-04T13:12:10.672Z,97285.65
2018-12-04T13:33:19.361Z,97287.00
2018-12-04T13:38:13.907Z,97300.82
2018-12-04T13:43:09.288Z,97305.21
2018-12-04T13:48:03.871Z,97300.99
2018-12-04T13:52:59.404Z,97299.84
2018-12-04T14:14:09.226Z,97342.77
2018-12-04T14:19:05.897Z,97354.98
2018-12-04T14:24:01.569Z,97375.27
2018-12-04T14:28:55.789Z,97409.28
2018-12-04T14:33:51.757Z,97410.03
2018-12-04T14:49:38.612Z,97444.89
2018-12-04T14:54:34.645Z,97458.59
2018-12-04T14:59:30.016Z,97472.34
2018-12-04T15:04:25.334Z,97484.70
2018-12-04T15:25:35.051Z,97532.80
2018-12-04T15:30:31.502Z,97528.09
2018-12-04T15:35:38.228Z,97527.91
2018-12-04T15:40:34.195Z,97534.58
2018-12-04T15:45:29.223Z,97545.48
2018-12-04T15:50:23.879Z,97542.62
2018-12-04T15:55:18.562Z,97545.17
2018-12-04T16:00:14.880Z,97557.01
2018-12-04T16:05:10.987Z,97554.37
2018-12-04T16:26:20.386Z,97595.22
2018-12-04T16:31:16.119Z,97610.63
2018-12-04T16:36:15.960Z,97614.44
2018-12-04T16:41:10.639Z,97623.34
2018-12-04T16:46:07.523Z,97619.24
2018-12-04T17:07:17.128Z,97635.91
2018-12-04T17:12:11.639Z,97634.45
2018-12-04T17:17:07.479Z,97645.91
2018-12-04T17:22:02.091Z,97647.96
2018-12-04T17:26:56.710Z,97656.45
2018-12-04T17:37:16.903Z,97664.59
2018-12-04T17:42:11.447Z,97672.30
2018-12-04T17:47:06.064Z,97680.97
2018-12-04T17:52:00.642Z,97671.10
2018-12-04T18:13:09.573Z,97706.30
2018-12-04T18:18:04.171Z,97689.70
2018-12-04T18:22:58.777Z,97711.27
2018-12-04T18:27:53.511Z,97707.06
2018-12-04T18:32:48.134Z,97717.33
2018-12-04T18:37:42.715Z,97719.94
2018-12-04T18:42:37.249Z,97722.87
2018-12-04T18:47:31.803Z,97721.56
2018-12-04T18:52:26.337Z,97735.59
2018-12-04T19:13:35.044Z,97755.52
2018-12-04T19:18:29.819Z,97752.35
2018-12-04T19:23:24.748Z,97758.02
2018-12-04T19:28:19.374Z,97751.41
2018-12-04T19:33:13.971Z,97755.52
2018-12-04T19:54:23.354Z,97751.71
2018-12-04T19:59:17.831Z,97743.46
2018-12-04T20:04:12.551Z,97747.23
2018-12-04T20:09:09.287Z,97748.06
2018-12-04T20:14:03.879Z,97745.33
2018-12-04T20:29:48.439Z,97754.34
2018-12-04T20:34:42.932Z,97760.87
2018-12-04T20:39:37.511Z,97760.83
2018-12-04T20:44:32.058Z,97757.27
2018-12-04T21:05:40.603Z,97762.06
2018-12-04T21:10:35.100Z,97770.10
2018-12-04T21:15:29.644Z,97785.39
2018-12-04T21:20:24.205Z,97788.47
2018-12-04T21:25:18.743Z,97788.20
2018-12-04T21:30:18.406Z,97793.48
2018-12-04T21:35:18.179Z,97775.82
2018-12-04T21:40:17.942Z,97772.70
2018-12-04T21:45:17.704Z,97775.11
2018-12-04T21:50:12.164Z,97777.36
2018-12-04T22:11:21.876Z,97798.14
2018-12-04T22:16:16.394Z,97802.98
2018-12-04T22:21:10.900Z,97815.89
2018-12-04T22:26:05.477Z,97804.68
2018-12-04T22:31:00.014Z,97805.73
2018-12-04T22:52:09.228Z,97811.00
2018-12-04T22:57:03.732Z,97803.31
2018-12-04T23:01:58.299Z,97817.48
2018-12-04T23:06:52.828Z,97821.16
2018-12-04T23:11:47.452Z,97830.29
2018-12-04T23:22:07.345Z,97824.66
2018-12-04T23:27:01.928Z,97823.44
2018-12-04T23:31:56.679Z,97809.66
2018-12-04T23:36:51.318Z,97810.90
2018-12-04T23:58:01.147Z,97785.22
